createdAt,value
2019-05-20T00:01:49.366Z,4.35
2019-05-20T00:04:20.937Z,3.50
2019-05-20T00:06:52.673Z,3.08
2019-05-20T00:09:24.816Z,3.02
2019-05-20T00:11:56.381Z,2.80
2019-05-20T00:14:27.858Z,2.95
2019-05-20T00:16:59.316Z,3.08
2019-05-20T00:19:30.943Z,2.75
2019-05-20T00:22:02.317Z,2.50
2019-05-20T00:24:33.559Z,2.77
2019-05-20T00:27:05.215Z,2.27
2019-05-20T00:29:36.976Z,2.87
2019-05-20T00:32:09.792Z,2.50
2019-05-20T00:34:41.471Z,2.45
2019-05-20T00:37:13.430Z,5.05
2019-05-20T00:39:44.851Z,4.62
2019-05-20T00:42:16.355Z,5.87
2019-05-20T00:44:47.761Z,7.65
2019-05-20T00:47:19.377Z,10.23
2019-05-20T00:49:50.727Z,9.88
2019-05-20T00:52:21.947Z,10.28
2019-05-20T00:54:53.088Z,10.18
2019-05-20T00:57:24.491Z,11.90
2019-05-20T00:59:55.910Z,15.60
2019-05-20T01:02:27.577Z,21.75
2019-05-20T01:05:01.221Z,20.02
2019-05-20T01:07:32.825Z,15.88
2019-05-20T01:10:06.202Z,22.37
2019-05-20T01:12:37.674Z,26.77
2019-05-20T01:15:09.230Z,20.20
2019-05-20T01:17:40.675Z,22.95
2019-05-20T01:20:12.846Z,22.25
2019-05-20T01:22:44.308Z,17.95
2019-05-20T01:25:15.564Z,9.73
2019-05-20T01:27:47.256Z,9.25
2019-05-20T01:30:18.523Z,7.95
2019-05-20T01:32:53.762Z,5.47
2019-05-20T01:35:27.288Z,4.47
2019-05-20T01:37:58.717Z,4.62
2019-05-20T01:40:29.830Z,4.22
2019-05-20T01:43:01.531Z,4.70
2019-05-20T01:45:32.876Z,4.50
2019-05-20T01:48:04.516Z,4.70
2019-05-20T01:50:36.081Z,4.42
2019-05-20T01:53:07.740Z,6.17
2019-05-20T01:55:39.289Z,7.33
2019-05-20T01:58:10.621Z,8.08
2019-05-20T02:00:42.088Z,7.17
2019-05-20T02:03:28.759Z,6.90
2019-05-20T02:05:47.232Z,5.40
2019-05-20T02:08:18.872Z,4.75
2019-05-20T02:10:50.015Z,4.28
2019-05-20T02:13:25.482Z,4.10
2019-05-20T02:15:58.842Z,4.30
2019-05-20T02:18:30.316Z,3.92
2019-05-20T02:21:02.023Z,3.80
2019-05-20T02:23:34.380Z,3.12
2019-05-20T02:26:06.014Z,3.42
2019-05-20T02:28:38.249Z,2.70
2019-05-20T02:31:10.671Z,3.02
2019-05-20T02:33:51.607Z,2.98
2019-05-20T02:36:16.306Z,3.40
2019-05-20T02:38:47.793Z,5.70
2019-05-20T02:41:19.326Z,8.60
2019-05-20T02:43:51.179Z,13.55
2019-05-20T02:46:22.327Z,17.73
2019-05-20T02:48:54.292Z,28.52
2019-05-20T02:51:31.341Z,23.52
2019-05-20T02:54:05.458Z,18.50
2019-05-20T02:56:36.650Z,12.60
2019-05-20T02:59:08.496Z,10.85
2019-05-20T03:01:39.941Z,9.08
2019-05-20T03:04:13.049Z,8.35
2019-05-20T03:06:44.461Z,8.25
2019-05-20T03:09:16.632Z,9.98
2019-05-20T03:11:47.995Z,9.75
2019-05-20T03:14:19.705Z,10.08
2019-05-20T03:16:51.298Z,8.40
2019-05-20T03:19:23.064Z,7.50
2019-05-20T03:21:54.722Z,5.80
2019-05-20T03:24:26.162Z,5.35
2019-05-20T03:26:57.614Z,4.65
2019-05-20T03:29:30.656Z,4.50
2019-05-20T03:32:04.903Z,3.92
2019-05-20T03:34:46.455Z,4.00
2019-05-20T03:37:09.524Z,3.77
2019-05-20T03:39:41.173Z,4.30
2019-05-20T03:42:12.350Z,5.20
2019-05-20T03:44:43.611Z,8.15
2019-05-20T03:47:14.743Z,9.45
2019-05-20T03:49:46.199Z,13.43
2019-05-20T03:52:17.917Z,15.18
2019-05-20T03:54:50.497Z,15.25
2019-05-20T03:57:30.125Z,16.90
2019-05-20T04:00:01.834Z,19.60
2019-05-20T04:02:34.626Z,20.52
2019-05-20T04:05:07.715Z,15.78
2019-05-20T04:07:39.242Z,12.53
2019-05-20T04:10:10.811Z,7.03
2019-05-20T04:12:42.459Z,6.03
2019-05-20T04:15:14.014Z,6.75
2019-05-20T04:17:51.855Z,6.37
2019-05-20T04:20:26.641Z,6.03
2019-05-20T04:23:00.558Z,7.30
2019-05-20T04:25:33.002Z,6.90
2019-05-20T04:28:04.884Z,6.10
2019-05-20T04:30:37.259Z,6.47
2019-05-20T04:33:08.607Z,6.47
2019-05-20T04:35:39.951Z,5.35
2019-05-20T04:38:11.274Z,5.58
2019-05-20T04:40:42.396Z,4.83
2019-05-20T04:43:15.680Z,4.10
2019-05-20T04:45:47.286Z,4.70
2019-05-20T04:48:21.056Z,5.00
2019-05-20T04:50:52.291Z,4.20
2019-05-20T04:53:23.778Z,4.55
2019-05-20T04:55:56.466Z,19.62
2019-05-20T04:58:29.119Z,14.58
2019-05-20T05:01:00.476Z,11.12
2019-05-20T05:03:31.943Z,11.65
2019-05-20T05:06:06.046Z,11.22
2019-05-20T05:08:37.163Z,19.65
2019-05-20T05:11:08.648Z,16.60
2019-05-20T05:13:40.090Z,11.97
2019-05-20T05:16:18.043Z,13.43
2019-05-20T05:18:45.457Z,8.73
2019-05-20T05:21:17.832Z,6.70
2019-05-20T05:23:59.221Z,4.87
2019-05-20T05:26:24.013Z,4.83
2019-05-20T05:28:55.458Z,4.90
2019-05-20T05:31:27.112Z,5.45
2019-05-20T05:34:00.342Z,6.60
2019-05-20T05:36:32.060Z,7.90
2019-05-20T05:39:03.260Z,7.55
2019-05-20T05:41:34.757Z,8.13
2019-05-20T05:44:06.313Z,11.45
2019-05-20T05:46:38.049Z,13.72
2019-05-20T05:49:11.870Z,14.70
2019-05-20T05:51:43.319Z,15.30
2019-05-20T05:54:14.656Z,14.78
2019-05-20T05:56:46.063Z,17.80
2019-05-20T05:59:17.565Z,13.55
2019-05-20T06:01:49.153Z,11.63
2019-05-20T06:04:21.429Z,8.90
2019-05-20T06:06:52.651Z,8.33
2019-05-20T06:09:24.055Z,6.70
2019-05-20T06:11:56.054Z,10.30
2019-05-20T06:14:27.325Z,11.35
2019-05-20T06:16:58.747Z,7.62
2019-05-20T06:19:29.993Z,9.60
2019-05-20T06:22:01.327Z,8.50
2019-05-20T06:24:32.875Z,8.40
2019-05-20T06:27:04.564Z,9.50
2019-05-20T06:29:37.677Z,8.05
2019-05-20T06:32:09.000Z,7.10
2019-05-20T06:34:42.486Z,7.05
2019-05-20T06:37:15.947Z,6.55
2019-05-20T06:39:47.343Z,6.33
2019-05-20T06:42:18.791Z,6.33
2019-05-20T06:44:52.998Z,6.05
2019-05-20T06:47:23.148Z,6.33
2019-05-20T06:49:54.469Z,4.78
2019-05-20T06:52:35.527Z,4.53
2019-05-20T06:54:58.990Z,3.67
2019-05-20T06:57:30.259Z,3.65
2019-05-20T07:00:01.528Z,3.10
2019-05-20T07:02:33.413Z,3.27
2019-05-20T07:05:06.751Z,3.98
2019-05-20T07:07:38.288Z,3.87
2019-05-20T07:10:09.551Z,4.65
2019-05-20T07:12:41.942Z,5.15
2019-05-20T07:15:15.050Z,5.08
2019-05-20T07:17:46.668Z,5.75
2019-05-20T07:20:18.529Z,5.87
2019-05-20T07:22:55.978Z,4.97
2019-05-20T07:25:23.899Z,6.20
2019-05-20T07:27:55.111Z,5.22
2019-05-20T07:30:26.272Z,5.55
2019-05-20T07:32:57.805Z,5.95
2019-05-20T07:35:31.155Z,5.67
2019-05-20T07:38:02.464Z,4.87
2019-05-20T07:40:33.930Z,4.37
2019-05-20T07:43:05.860Z,4.40
2019-05-20T07:45:37.527Z,4.80
2019-05-20T07:48:09.098Z,5.35
2019-05-20T07:50:40.435Z,5.70
2019-05-20T07:53:11.816Z,3.67
2019-05-20T07:55:58.573Z,4.70
2019-05-20T07:58:33.479Z,4.92
2019-05-20T08:01:05.080Z,3.08
2019-05-20T08:03:38.666Z,2.77
2019-05-20T08:06:10.015Z,2.83
2019-05-20T08:08:43.031Z,3.20
2019-05-20T08:11:14.259Z,3.55
2019-05-20T08:13:45.545Z,2.50
2019-05-20T08:16:17.263Z,5.50
2019-05-20T08:18:50.544Z,3.95
2019-05-20T08:21:22.009Z,1.95
2019-05-20T08:23:53.250Z,2.22
2019-05-20T08:26:24.916Z,3.52
2019-05-20T08:28:59.122Z,2.75
2019-05-20T08:31:30.577Z,3.02
2019-05-20T08:34:03.735Z,2.25
2019-05-20T08:36:35.238Z,4.90
2019-05-20T08:39:07.791Z,3.50
2019-05-20T08:41:39.254Z,1.95
2019-05-20T08:44:10.689Z,2.52
2019-05-20T08:46:42.920Z,2.95
2019-05-20T08:49:14.512Z,3.08
2019-05-20T08:51:46.040Z,5.97
2019-05-20T08:54:17.617Z,7.33
2019-05-20T08:56:49.425Z,2.00
2019-05-20T08:59:21.158Z,3.12
2019-05-20T09:01:52.583Z,2.30
2019-05-20T09:04:24.243Z,1.98
2019-05-20T09:06:55.978Z,2.33
2019-05-20T09:09:28.305Z,1.80
2019-05-20T09:12:02.633Z,2.05
2019-05-20T09:14:35.160Z,2.60
2019-05-20T09:17:07.124Z,6.45
2019-05-20T09:19:39.164Z,4.08
2019-05-20T09:22:12.355Z,3.05
2019-05-20T09:24:45.409Z,3.42
2019-05-20T09:27:18.801Z,4.70
2019-05-20T09:29:50.299Z,3.65
2019-05-20T09:32:22.583Z,2.60
2019-05-20T09:34:54.142Z,4.70
2019-05-20T09:37:25.493Z,6.65
2019-05-20T09:39:57.035Z,4.85
2019-05-20T09:42:28.289Z,2.17
2019-05-20T09:45:02.900Z,6.55
2019-05-20T09:47:34.262Z,2.92
2019-05-20T09:50:06.093Z,2.35
2019-05-20T09:52:37.488Z,1.90
2019-05-20T09:55:08.722Z,2.40
2019-05-20T09:57:40.269Z,3.52
2019-05-20T10:00:12.947Z,6.67
2019-05-20T10:02:44.291Z,5.65
2019-05-20T10:05:15.641Z,5.37
2019-05-20T10:07:47.410Z,5.08
2019-05-20T10:10:19.362Z,3.22
2019-05-20T10:12:52.046Z,2.98
2019-05-20T10:15:23.374Z,2.35
2019-05-20T10:17:54.940Z,2.50
2019-05-20T10:20:26.264Z,12.07
2019-05-20T10:22:58.144Z,5.60
2019-05-20T10:25:29.594Z,5.65
2019-05-20T10:28:02.457Z,4.00
2019-05-20T10:30:35.444Z,4.10
2019-05-20T10:33:09.080Z,3.92
2019-05-20T10:35:42.367Z,5.03
2019-05-20T10:38:13.834Z,5.70
2019-05-20T10:40:48.031Z,4.03
2019-05-20T10:43:19.453Z,2.80
2019-05-20T10:45:51.012Z,2.83
2019-05-20T10:48:24.123Z,3.02
2019-05-20T10:50:55.577Z,2.60
2019-05-20T10:53:28.466Z,3.95
2019-05-20T10:56:00.083Z,2.87
2019-05-20T10:58:32.478Z,2.60
2019-05-20T11:01:07.618Z,2.30
2019-05-20T11:03:42.316Z,3.70
2019-05-20T11:06:14.041Z,7.00
2019-05-20T11:08:45.757Z,5.58
2019-05-20T11:11:17.721Z,3.87
2019-05-20T11:13:48.940Z,3.20
2019-05-20T11:16:20.037Z,2.40
2019-05-20T11:18:51.969Z,2.70
2019-05-20T11:21:23.625Z,2.30
2019-05-20T11:23:56.890Z,4.15
2019-05-20T11:26:28.467Z,2.60
2019-05-20T11:29:01.020Z,2.85
2019-05-20T11:31:32.704Z,4.58
2019-05-20T11:34:04.152Z,2.65
2019-05-20T11:36:36.460Z,2.45
2019-05-20T11:39:07.982Z,2.45
2019-05-20T11:41:52.743Z,3.05
2019-05-20T11:44:12.217Z,2.52
2019-05-20T11:46:44.373Z,2.50
2019-05-20T11:49:15.924Z,3.35
2019-05-20T11:51:47.172Z,2.45
2019-05-20T11:54:18.824Z,3.22
2019-05-20T11:56:50.190Z,4.15
2019-05-20T11:59:21.624Z,2.52
2019-05-20T12:01:53.556Z,2.33
2019-05-20T12:04:25.434Z,3.08
2019-05-20T12:06:57.681Z,2.90
2019-05-20T12:09:30.243Z,3.33
2019-05-20T12:12:02.039Z,2.30
2019-05-20T12:14:33.794Z,2.00
2019-05-20T12:17:06.596Z,2.15
2019-05-20T12:19:39.344Z,2.47
2019-05-20T12:22:11.420Z,4.22
2019-05-20T12:24:47.229Z,3.75
2019-05-20T12:27:26.536Z,2.62
2019-05-20T12:29:59.511Z,2.60
2019-05-20T12:32:34.238Z,4.00
2019-05-20T12:35:07.740Z,5.75
2019-05-20T12:37:39.060Z,4.72
2019-05-20T12:40:12.046Z,6.30
2019-05-20T12:42:43.928Z,5.05
2019-05-20T12:45:15.270Z,3.00
2019-05-20T12:47:47.051Z,2.60
2019-05-20T12:50:20.210Z,3.62
2019-05-20T12:52:53.001Z,3.05
2019-05-20T12:55:24.565Z,2.15
2019-05-20T12:57:58.686Z,4.30
2019-05-20T13:00:30.848Z,3.72
2019-05-20T13:03:02.275Z,3.90
2019-05-20T13:05:35.269Z,5.03
2019-05-20T13:08:08.752Z,7.17
2019-05-20T13:10:42.106Z,2.80
2019-05-20T13:13:18.655Z,1.40
2019-05-20T13:15:50.111Z,2.10
2019-05-20T13:18:21.838Z,2.17
2019-05-20T13:20:53.542Z,2.05
2019-05-20T13:23:25.067Z,2.40
2019-05-20T13:25:58.025Z,1.95
2019-05-20T13:28:30.395Z,4.58
2019-05-20T13:31:02.075Z,6.20
2019-05-20T13:33:33.937Z,9.50
2019-05-20T13:36:05.482Z,7.33
2019-05-20T13:38:37.030Z,7.70
2019-05-20T13:41:08.912Z,3.60
2019-05-20T13:43:40.856Z,2.33
2019-05-20T13:46:12.208Z,2.00
2019-05-20T13:48:43.789Z,1.90
2019-05-20T13:51:15.951Z,1.92
2019-05-20T13:53:49.134Z,2.85
2019-05-20T13:56:21.296Z,7.58
2019-05-20T13:58:52.850Z,5.83
2019-05-20T14:01:24.932Z,2.55
2019-05-20T14:03:57.331Z,2.37
2019-05-20T14:06:29.133Z,1.60
2019-05-20T14:09:00.784Z,2.42
2019-05-20T14:11:35.014Z,2.65
2019-05-20T14:14:07.279Z,1.85
2019-05-20T14:16:38.728Z,2.27
2019-05-20T14:19:10.408Z,2.02
2019-05-20T14:21:41.720Z,2.60
2019-05-20T14:24:13.689Z,3.17
2019-05-20T14:26:45.052Z,2.40
2019-05-20T14:29:16.997Z,2.77
2019-05-20T14:31:48.682Z,10.13
2019-05-20T14:34:20.194Z,6.00
2019-05-20T14:36:52.943Z,3.37
2019-05-20T14:39:25.584Z,10.55
2019-05-20T14:41:57.996Z,13.70
2019-05-20T14:44:29.696Z,6.62
2019-05-20T14:47:02.593Z,6.12
2019-05-20T14:49:35.159Z,5.62
2019-05-20T14:52:06.695Z,5.28
2019-05-20T14:54:38.260Z,3.08
2019-05-20T14:57:10.337Z,3.40
2019-05-20T14:59:41.964Z,7.17
2019-05-20T15:02:13.440Z,9.58
2019-05-20T15:04:44.858Z,5.90
2019-05-20T15:07:29.053Z,5.40
2019-05-20T15:09:49.623Z,3.55
2019-05-20T15:12:21.079Z,6.92
2019-05-20T15:14:52.409Z,4.90
2019-05-20T15:17:23.974Z,7.25
2019-05-20T15:19:57.115Z,5.20
2019-05-20T15:22:28.600Z,2.85
2019-05-20T15:25:00.176Z,4.47
2019-05-20T15:27:31.708Z,2.80
2019-05-20T15:30:05.180Z,3.52
2019-05-20T15:32:38.119Z,9.45
2019-05-20T15:35:10.691Z,4.08
2019-05-20T15:37:42.033Z,8.45
2019-05-20T15:40:13.587Z,2.50
2019-05-20T15:42:46.884Z,2.15
2019-05-20T15:45:18.330Z,2.12
2019-05-20T15:47:49.884Z,5.20
2019-05-20T15:50:21.948Z,2.30
2019-05-20T15:52:53.408Z,2.85
2019-05-20T15:55:25.892Z,2.62
2019-05-20T15:57:57.208Z,2.77
2019-05-20T16:00:28.675Z,2.50
2019-05-20T16:03:01.861Z,1.72
2019-05-20T16:05:33.510Z,2.95
2019-05-20T16:08:04.801Z,4.15
2019-05-20T16:10:36.244Z,3.12
2019-05-20T16:13:07.661Z,3.10
2019-05-20T16:15:39.292Z,5.03
2019-05-20T16:18:10.920Z,5.72
2019-05-20T16:20:42.626Z,11.60
2019-05-20T16:23:14.589Z,9.20
2019-05-20T16:25:46.407Z,16.40
2019-05-20T16:28:17.982Z,12.63
2019-05-20T16:30:50.479Z,14.15
2019-05-20T16:33:21.726Z,6.47
2019-05-20T16:35:53.481Z,6.30
2019-05-20T16:38:25.014Z,4.30
2019-05-20T16:40:56.664Z,4.53
2019-05-20T16:43:28.147Z,7.30
2019-05-20T16:45:59.689Z,7.42
2019-05-20T16:48:30.928Z,12.53
2019-05-20T16:51:02.180Z,9.88
2019-05-20T16:53:33.528Z,8.03
2019-05-20T16:56:05.082Z,5.62
2019-05-20T16:58:36.746Z,4.28
2019-05-20T17:01:08.108Z,4.30
2019-05-20T17:03:40.045Z,5.67
2019-05-20T17:06:11.580Z,4.10
2019-05-20T17:08:42.779Z,8.70
2019-05-20T17:11:13.997Z,8.98
2019-05-20T17:13:45.650Z,7.90
2019-05-20T17:16:17.509Z,9.75
2019-05-20T17:18:50.184Z,11.15
2019-05-20T17:21:21.748Z,13.05
2019-05-20T17:23:54.526Z,12.58
2019-05-20T17:26:26.467Z,12.07
2019-05-20T17:28:58.864Z,10.95
2019-05-20T17:31:31.044Z,11.68
2019-05-20T17:34:02.727Z,18.30
2019-05-20T17:36:34.331Z,19.45
2019-05-20T17:39:06.100Z,15.72
2019-05-20T17:41:37.443Z,16.00
2019-05-20T17:44:10.785Z,18.42
2019-05-20T17:46:41.703Z,20.43
2019-05-20T17:49:13.344Z,17.62
2019-05-20T17:51:44.675Z,10.08
2019-05-20T17:54:16.739Z,8.03
2019-05-20T17:56:48.183Z,5.80
2019-05-20T17:59:19.732Z,4.75
2019-05-20T18:01:51.118Z,4.05
2019-05-20T18:04:22.743Z,3.02
2019-05-20T18:06:55.317Z,3.00
2019-05-20T18:09:28.704Z,4.55
2019-05-20T18:12:00.579Z,5.12
2019-05-20T18:14:31.927Z,8.38
2019-05-20T18:17:03.377Z,11.73
2019-05-20T18:19:35.236Z,8.65
2019-05-20T18:22:06.681Z,9.13
2019-05-20T18:24:38.006Z,9.10
2019-05-20T18:27:10.196Z,7.87
2019-05-20T18:29:41.857Z,5.20
2019-05-20T18:32:13.412Z,4.80
2019-05-20T18:34:46.398Z,3.12
2019-05-20T18:37:17.728Z,3.70
2019-05-20T18:39:51.548Z,4.58
2019-05-20T18:42:24.410Z,3.95
2019-05-20T18:44:55.777Z,2.72
2019-05-20T18:47:29.056Z,2.62
2019-05-20T18:50:00.292Z,2.95
2019-05-20T18:52:31.877Z,2.62
2019-05-20T18:55:03.223Z,2.75
2019-05-20T18:57:34.461Z,2.50
2019-05-20T19:00:08.337Z,3.77
2019-05-20T19:02:41.251Z,5.05
2019-05-20T19:05:12.807Z,8.13
2019-05-20T19:07:44.683Z,12.13
2019-05-20T19:10:16.324Z,11.65
2019-05-20T19:12:47.855Z,15.10
2019-05-20T19:15:19.327Z,15.90
2019-05-20T19:17:52.653Z,23.22
2019-05-20T19:20:24.283Z,38.55
2019-05-20T19:22:56.681Z,39.38
2019-05-20T19:25:37.338Z,24.85
2019-05-20T19:28:03.643Z,20.40
2019-05-20T19:30:35.195Z,16.05
2019-05-20T19:33:09.058Z,10.68
2019-05-20T19:35:41.249Z,7.55
2019-05-20T19:38:14.462Z,7.78
2019-05-20T19:40:46.014Z,6.37
2019-05-20T19:43:19.300Z,5.70
2019-05-20T19:45:50.767Z,4.08
2019-05-20T19:48:22.212Z,3.92
2019-05-20T19:50:54.788Z,4.80
2019-05-20T19:53:27.981Z,4.60
2019-05-20T19:56:00.963Z,3.95
2019-05-20T19:58:34.025Z,4.10
2019-05-20T20:01:05.713Z,4.75
2019-05-20T20:03:39.415Z,5.05
2019-05-20T20:06:12.483Z,4.40
2019-05-20T20:08:44.125Z,4.65
2019-05-20T20:11:15.497Z,5.53
2019-05-20T20:13:51.190Z,23.65
2019-05-20T20:16:25.871Z,5.50
2019-05-20T20:18:57.629Z,7.05
2019-05-20T20:21:29.198Z,8.58
2019-05-20T20:24:02.487Z,11.70
2019-05-20T20:26:33.887Z,11.20
2019-05-20T20:29:11.053Z,13.58
2019-05-20T20:31:40.300Z,15.08
2019-05-20T20:34:11.767Z,14.90
2019-05-20T20:36:43.345Z,17.00
2019-05-20T20:39:15.185Z,18.57
2019-05-20T20:41:46.737Z,17.17
2019-05-20T20:44:18.601Z,17.73
2019-05-20T20:46:49.946Z,19.52
2019-05-20T20:49:21.268Z,17.10
2019-05-20T20:51:52.946Z,20.70
2019-05-20T20:54:24.218Z,21.25
2019-05-20T20:56:59.941Z,23.75
2019-05-20T20:59:31.475Z,21.65
2019-05-20T21:02:03.045Z,23.98
2019-05-20T21:04:34.393Z,26.65
2019-05-20T21:07:06.667Z,25.25
2019-05-20T21:09:41.241Z,26.02
2019-05-20T21:12:13.061Z,27.98
2019-05-20T21:14:45.627Z,23.10
2019-05-20T21:17:18.689Z,24.77
2019-05-20T21:19:51.408Z,23.87
2019-05-20T21:22:22.842Z,26.82
2019-05-20T21:24:54.484Z,19.62
2019-05-20T21:27:27.307Z,24.77
2019-05-20T21:29:59.015Z,22.05
2019-05-20T21:32:30.381Z,19.87
2019-05-20T21:35:02.038Z,12.95
2019-05-20T21:37:33.679Z,11.85
2019-05-20T21:40:15.723Z,8.93
2019-05-20T21:42:47.139Z,11.48
2019-05-20T21:45:20.227Z,9.50
2019-05-20T21:47:53.325Z,10.45
2019-05-20T21:50:25.180Z,9.70
2019-05-20T21:52:57.139Z,9.45
2019-05-20T21:55:29.205Z,8.60
2019-05-20T21:58:00.864Z,6.37
2019-05-20T22:00:46.136Z,5.97
2019-05-20T22:03:24.439Z,5.87
2019-05-20T22:05:50.775Z,4.15
2019-05-20T22:08:22.027Z,3.70
2019-05-20T22:10:53.343Z,3.50
2019-05-20T22:13:24.820Z,3.72
2019-05-20T22:15:56.270Z,4.83
2019-05-20T22:18:27.419Z,4.80
2019-05-20T22:20:59.072Z,4.00
2019-05-20T22:23:31.955Z,3.50
2019-05-20T22:26:05.560Z,4.62
2019-05-20T22:28:37.113Z,3.47
2019-05-20T22:31:08.595Z,3.05
2019-05-20T22:33:42.242Z,3.15
2019-05-20T22:36:14.059Z,2.77
2019-05-20T22:38:46.901Z,2.80
2019-05-20T22:41:18.251Z,3.37
2019-05-20T22:43:49.785Z,3.67
2019-05-20T22:46:22.339Z,2.90
2019-05-20T22:48:54.711Z,3.40
2019-05-20T22:51:25.995Z,3.62
2019-05-20T22:53:57.461Z,3.10
2019-05-20T22:56:28.815Z,3.12
2019-05-20T22:59:00.486Z,3.40
2019-05-20T23:01:31.797Z,3.75
2019-05-20T23:04:03.051Z,2.90
2019-05-20T23:06:35.585Z,2.70
2019-05-20T23:09:10.821Z,3.45
2019-05-20T23:11:41.386Z,2.90
2019-05-20T23:14:13.824Z,2.30
2019-05-20T23:16:45.308Z,2.95
2019-05-20T23:19:16.559Z,3.20
2019-05-20T23:21:48.113Z,2.77
2019-05-20T23:24:19.340Z,2.25
2019-05-20T23:26:51.604Z,2.27
2019-05-20T23:29:22.884Z,2.62
2019-05-20T23:31:54.303Z,2.45
2019-05-20T23:34:25.767Z,2.90
2019-05-20T23:36:57.409Z,2.50
2019-05-20T23:39:28.765Z,3.00
2019-05-20T23:42:00.331Z,2.60
2019-05-20T23:44:31.480Z,2.45
2019-05-20T23:47:02.765Z,3.15
2019-05-20T23:49:41.645Z,2.02
2019-05-20T23:52:13.301Z,2.00
2019-05-20T23:54:44.620Z,2.72
2019-05-20T23:57:16.030Z,2.40
2019-05-20T23:59:47.446Z,2.55
